createdAt,value
2022-11-26T00:09:17.000Z,996.80
2022-11-26T00:23:54.000Z,997.01
2022-11-26T00:38:26.000Z,997.18
2022-11-26T00:53:02.000Z,997.37
2022-11-26T01:07:39.000Z,997.61
2022-11-26T01:22:16.000Z,997.89
2022-11-26T01:36:53.000Z,997.93
2022-11-26T01:51:31.000Z,998.19
2022-11-26T02:06:06.000Z,998.36
2022-11-26T02:20:42.000Z,998.29
2022-11-26T02:35:19.000Z,998.43
2022-11-26T02:49:52.000Z,998.55
2022-11-26T03:04:30.000Z,998.35
2022-11-26T03:19:00.000Z,998.20
2022-11-26T03:33:31.000Z,998.25
2022-11-26T03:48:08.000Z,998.30
2022-11-26T04:02:44.000Z,998.33
2022-11-26T04:17:20.000Z,998.47
2022-11-26T04:31:55.000Z,998.74
2022-11-26T04:46:25.000Z,999.03
2022-11-26T05:01:03.000Z,999.43
2022-11-26T05:15:36.000Z,999.57
2022-11-26T05:30:14.000Z,999.72
2022-11-26T05:44:43.000Z,999.87
2022-11-26T05:59:21.000Z,999.95
2022-11-26T06:13:59.000Z,999.92
2022-11-26T06:28:36.000Z,1000.08
2022-11-26T06:43:13.000Z,1000.20
2022-11-26T06:57:49.000Z,1000.43
2022-11-26T07:12:26.000Z,1000.58
2022-11-26T07:27:03.000Z,1000.54
2022-11-26T07:41:41.000Z,1000.43
2022-11-26T07:56:16.000Z,1000.82
2022-11-26T08:10:46.000Z,1001.18
2022-11-26T08:25:21.000Z,1001.15
2022-11-26T08:39:57.000Z,1001.28
2022-11-26T08:54:36.000Z,1001.17
2022-11-26T09:09:18.000Z,1001.20
2022-11-26T09:24:00.000Z,1001.17
2022-11-26T09:38:43.000Z,1001.18
2022-11-26T09:53:28.000Z,1001.30
2022-11-26T10:08:10.000Z,1001.28
2022-11-26T10:22:34.000Z,1001.30
2022-11-26T10:37:02.000Z,1001.16
2022-11-26T10:51:35.000Z,1001.23
2022-11-26T11:06:04.000Z,1001.26
2022-11-26T11:20:37.000Z,1001.23
2022-11-26T11:35:13.000Z,1001.33
2022-11-26T11:49:48.000Z,1001.32
2022-11-26T12:04:24.000Z,1001.44
2022-11-26T12:19:01.000Z,1001.19
2022-11-26T12:33:38.000Z,1001.24
2022-11-26T12:48:13.000Z,1001.28
2022-11-26T13:17:26.000Z,1001.08
2022-11-26T13:32:02.000Z,1001.09
2022-11-26T13:46:39.000Z,1001.20
2022-11-26T14:01:14.000Z,1001.14
2022-11-26T14:15:51.000Z,1000.98
2022-11-26T14:30:28.000Z,1000.72
2022-11-26T14:45:04.000Z,1000.63
2022-11-26T14:59:33.000Z,1000.59
2022-11-26T15:13:59.000Z,1000.56
2022-11-26T15:28:35.000Z,1000.48
2022-11-26T15:43:07.000Z,1000.44
2022-11-26T15:57:43.000Z,1000.49
2022-11-26T16:12:19.000Z,1000.43
2022-11-26T16:26:54.000Z,1000.56
2022-11-26T16:56:06.000Z,1000.64
2022-11-26T17:10:44.000Z,1000.50
2022-11-26T17:25:20.000Z,1000.51
2022-11-26T17:39:58.000Z,1000.55
2022-11-26T17:54:36.000Z,1000.58
2022-11-26T18:09:13.000Z,1000.46
2022-11-26T18:23:50.000Z,1000.42
2022-11-26T18:38:26.000Z,1000.43
2022-11-26T18:53:03.000Z,1000.37
2022-11-26T19:07:40.000Z,1000.09
2022-11-26T19:22:16.000Z,999.91
2022-11-26T19:36:51.000Z,1000.13
2022-11-26T19:51:29.000Z,1000.14
2022-11-26T20:06:05.000Z,1000.03
2022-11-26T20:20:43.000Z,1000.02
2022-11-26T20:35:20.000Z,1000.05
2022-11-26T20:49:56.000Z,1000.29
2022-11-26T21:04:32.000Z,1000.24
2022-11-26T21:19:10.000Z,1000.35
2022-11-26T21:33:47.000Z,1000.40
2022-11-26T21:48:24.000Z,1000.26
2022-11-26T22:03:00.000Z,1000.20
2022-11-26T22:17:40.000Z,1000.01
2022-11-26T22:32:13.000Z,999.84
2022-11-26T22:46:51.000Z,999.55
2022-11-26T23:01:27.000Z,999.40
2022-11-26T23:16:04.000Z,999.23
2022-11-26T23:30:41.000Z,998.99
2022-11-26T23:45:17.000Z,998.80
2022-11-26T23:59:45.000Z,998.60
